Time;durP1;ratioP1;P1;durP2;ratioP2;P2;SDS_P1;SDS_P2;PMS_P1;PMS_P2;Temp;Humidity;BMP_temperature;BMP_pressure;BME280_temperature;BME280_humidity;BME280_pressure;Samples;Min_cycle;Max_cycle;Signal;HPM_P1;HPM_P2
2023/03/26 00:01:38;;;;;;;5.95;1.50;;;11.80;99.90;;;;;;4971161;28;20211;-67
2023/03/26 00:04:07;;;;;;;5.43;1.38;;;11.80;99.90;;;;;;4971021;28;20195;-68
2023/03/26 00:06:37;;;;;;;7.57;2.00;;;11.80;99.90;;;;;;4992467;28;20180;-68
2023/03/26 00:09:05;;;;;;;5.63;1.70;;;11.80;99.90;;;;;;4975925;28;20203;-67
2023/03/26 00:11:36;;;;;;;6.60;1.63;;;11.70;99.90;;;;;;4973476;28;20192;-67
2023/03/26 00:14:02;;;;;;;6.20;1.50;;;11.70;99.90;;;;;;4987808;28;20232;-67
2023/03/26 00:16:30;;;;;;;6.47;1.65;;;11.70;99.90;;;;;;4981117;28;20180;-66
2023/03/26 00:18:57;;;;;;;7.57;1.67;;;11.60;99.90;;;;;;4973786;28;20183;-66
2023/03/26 00:21:27;;;;;;;3.63;1.42;;;11.70;99.90;;;;;;4971532;28;20180;-68
2023/03/26 00:24:06;;;;;;;5.75;1.70;;;11.60;99.90;;;;;;4992400;28;20176;-67
2023/03/26 00:26:37;;;;;;;4.82;1.50;;;11.60;99.90;;;;;;4976475;28;20235;-67
2023/03/26 00:29:03;;;;;;;6.97;1.60;;;11.50;99.90;;;;;;4992586;28;20192;-67
2023/03/26 00:31:29;;;;;;;10.80;1.73;;;11.50;99.90;;;;;;4976639;28;20183;-68
2023/03/26 00:34:02;;;;;;;6.45;1.85;;;11.50;99.90;;;;;;4987752;28;20211;-67
2023/03/26 00:36:28;;;;;;;5.18;1.40;;;11.40;99.90;;;;;;4974563;28;20173;-67
2023/03/26 00:38:54;;;;;;;5.25;1.73;;;11.50;99.90;;;;;;4967364;28;20247;-68
2023/03/26 00:41:24;;;;;;;7.32;1.98;;;11.40;99.90;;;;;;4973707;28;20188;-67
2023/03/26 00:43:54;;;;;;;7.28;1.70;;;11.40;99.90;;;;;;4976515;28;20505;-59
2023/03/26 00:46:21;;;;;;;6.28;1.60;;;11.30;99.90;;;;;;4988209;28;20334;-68
2023/03/26 00:48:49;;;;;;;6.50;1.98;;;11.30;99.90;;;;;;4976563;28;20183;-66
2023/03/26 00:51:19;;;;;;;5.35;1.92;;;11.20;99.90;;;;;;4976032;28;20251;-68
2023/03/26 00:53:47;;;;;;;7.28;1.73;;;11.30;99.90;;;;;;4966372;28;20219;-68
2023/03/26 00:56:16;;;;;;;8.88;2.17;;;11.20;99.90;;;;;;4976899;28;20242;-67
2023/03/26 00:58:42;;;;;;;6.15;1.70;;;11.30;99.90;;;;;;4975747;28;20176;-68
2023/03/26 01:01:14;;;;;;;5.38;1.35;;;11.20;99.90;;;;;;4992369;28;20175;-67
2023/03/26 01:03:44;;;;;;;9.43;2.20;;;11.20;99.90;;;;;;4976478;28;20267;-69
2023/03/26 01:06:21;;;;;;;4.35;1.45;;;11.20;99.90;;;;;;4982895;28;20288;-67
2023/03/26 01:08:53;;;;;;;6.97;1.60;;;11.10;99.90;;;;;;4971843;28;20192;-68
2023/03/26 01:11:25;;;;;;;6.88;1.60;;;11.10;99.90;;;;;;4991910;28;20263;-70
2023/03/26 01:14:15;;;;;;;8.00;1.70;;;11.10;99.90;;;;;;4982998;28;20196;-69
2023/03/26 01:16:51;;;;;;;6.53;1.63;;;11.10;99.90;;;;;;4992429;28;20292;-69
2023/03/26 01:19:36;;;;;;;8.10;1.77;;;11.10;99.90;;;;;;4976213;28;20219;-67
2023/03/26 01:22:04;;;;;;;5.65;1.77;;;11.10;99.90;;;;;;4983950;28;20195;-69
2023/03/26 01:24:32;;;;;;;7.72;1.45;;;11.10;99.90;;;;;;4992340;28;20180;-69
2023/03/26 01:27:27;;;;;;;5.43;1.63;;;11.00;99.90;;;;;;4974797;28;20259;-67
2023/03/26 01:29:56;;;;;;;6.20;1.55;;;11.00;99.90;;;;;;4971580;28;20254;-70
2023/03/26 01:33:04;;;;;;;7.50;1.80;;;11.00;99.90;;;;;;4991199;28;20243;-68
2023/03/26 01:35:44;;;;;;;6.35;2.10;;;11.00;99.90;;;;;;4991629;28;20195;-68
2023/03/26 01:38:21;;;;;;;6.75;1.70;;;11.00;99.90;;;;;;4992290;28;20176;-68
2023/03/26 01:40:59;;;;;;;5.60;1.50;;;11.00;99.90;;;;;;4992439;28;20203;-68
2023/03/26 01:43:58;;;;;;;6.53;1.63;;;10.90;99.90;;;;;;4991951;28;20183;-68
2023/03/26 01:46:26;;;;;;;6.63;1.50;;;11.00;99.90;;;;;;4969211;28;20220;-67
2023/03/26 01:48:54;;;;;;;6.05;1.65;;;11.00;99.90;;;;;;4983388;28;20239;-68
2023/03/26 01:51:32;;;;;;;7.00;1.50;;;10.90;99.90;;;;;;5011962;28;20185;-68
2023/03/26 01:54:00;;;;;;;5.13;1.60;;;10.90;99.90;;;;;;5011989;28;20253;-66
2023/03/26 01:56:43;;;;;;;5.45;1.40;;;10.90;99.90;;;;;;5008599;28;20179;-68
2023/03/26 01:59:12;;;;;;;8.35;1.80;;;10.90;99.90;;;;;;4994997;28;20200;-67
2023/03/26 02:01:43;;;;;;;5.85;1.60;;;10.90;99.90;;;;;;4978092;28;20191;-68
2023/03/26 02:04:25;;;;;;;5.88;1.38;;;10.90;99.90;;;;;;4992115;28;20259;-68
2023/03/26 02:07:01;;;;;;;5.00;1.45;;;10.90;99.90;;;;;;4957325;29;20221;-68
2023/03/26 02:09:34;;;;;;;6.70;1.48;;;10.90;99.90;;;;;;4988245;28;20182;-68
2023/03/26 02:12:05;;;;;;;6.10;1.27;;;10.90;99.90;;;;;;5012091;28;20207;-68
2023/03/26 02:14:31;;;;;;;6.40;1.40;;;10.90;99.90;;;;;;5008708;28;20205;-68
2023/03/26 02:16:59;;;;;;;5.60;1.50;;;10.90;99.90;;;;;;5011435;28;20179;-68
2023/03/26 02:19:28;;;;;;;6.40;1.70;;;10.90;99.90;;;;;;5012183;28;20179;-68
2023/03/26 02:21:58;;;;;;;9.35;1.85;;;10.90;99.90;;;;;;4984203;28;20181;-68
2023/03/26 02:24:26;;;;;;;3.83;1.27;;;10.90;99.90;;;;;;4983136;28;20214;-68
2023/03/26 02:26:52;;;;;;;7.60;1.40;;;11.00;99.90;;;;;;4982593;28;20188;-67
2023/03/26 02:29:19;;;;;;;7.95;1.80;;;11.00;99.90;;;;;;4991483;28;20251;-64
2023/03/26 02:31:48;;;;;;;6.22;1.50;;;11.00;99.90;;;;;;4983093;28;20194;-68
2023/03/26 02:34:17;;;;;;;5.28;1.63;;;11.00;99.90;;;;;;4984861;28;20203;-69
2023/03/26 02:36:42;;;;;;;5.57;1.60;;;11.00;99.90;;;;;;4986408;28;20279;-69
2023/03/26 02:39:09;;;;;;;4.95;1.80;;;11.10;99.90;;;;;;4975285;28;20311;-67
2023/03/26 02:41:38;;;;;;;6.57;1.92;;;11.10;99.90;;;;;;4975406;28;20241;-67
2023/03/26 02:44:04;;;;;;;6.43;1.52;;;11.10;99.90;;;;;;4975532;28;20200;-68
2023/03/26 02:46:34;;;;;;;8.68;1.85;;;11.10;99.90;;;;;;4991842;28;20181;-69
2023/03/26 02:49:02;;;;;;;5.22;1.55;;;11.20;99.90;;;;;;4974911;28;20216;-68
2023/03/26 02:51:33;;;;;;;4.60;1.70;;;11.20;99.90;;;;;;4974978;28;20212;-68
2023/03/26 02:54:01;;;;;;;6.70;1.73;;;11.20;99.90;;;;;;4975065;28;20204;-68
2023/03/26 02:56:27;;;;;;;7.97;2.00;;;11.20;99.90;;;;;;4971771;28;20184;-69
2023/03/26 02:58:53;;;;;;;4.85;1.88;;;11.30;99.90;;;;;;4988006;28;20196;-67
2023/03/26 03:01:19;;;;;;;7.05;1.85;;;11.30;99.90;;;;;;4975101;28;20431;-68
2023/03/26 03:03:47;;;;;;;7.32;1.80;;;11.30;99.90;;;;;;4975527;28;20214;-70
2023/03/26 03:06:17;;;;;;;6.00;1.70;;;11.30;99.90;;;;;;4974805;28;20238;-68
2023/03/26 03:08:44;;;;;;;4.63;1.65;;;11.30;99.90;;;;;;4991552;28;20184;-68
2023/03/26 03:11:20;;;;;;;7.20;1.60;;;11.30;99.90;;;;;;4982625;28;20304;-68
2023/03/26 03:13:49;;;;;;;6.35;1.67;;;11.30;99.90;;;;;;4990564;28;20292;-68
2023/03/26 03:16:15;;;;;;;3.95;1.63;;;11.30;99.90;;;;;;4974469;28;20559;-68
2023/03/26 03:18:40;;;;;;;6.30;1.98;;;11.30;99.90;;;;;;4978152;28;20172;-68
2023/03/26 03:21:06;;;;;;;5.80;1.38;;;11.30;99.90;;;;;;4972243;28;20267;-68
2023/03/26 03:23:32;;;;;;;5.60;1.90;;;11.30;99.90;;;;;;4968663;28;20196;-68
2023/03/26 03:26:02;;;;;;;7.50;1.83;;;11.40;99.90;;;;;;4978006;28;20183;-68
2023/03/26 03:28:30;;;;;;;4.40;1.75;;;11.40;99.90;;;;;;4979071;28;20173;-66
2023/03/26 03:30:56;;;;;;;6.28;1.70;;;11.30;99.90;;;;;;4989523;28;20176;-70
2023/03/26 03:33:22;;;;;;;5.13;1.50;;;11.40;99.90;;;;;;4978011;28;20176;-67
2023/03/26 03:35:49;;;;;;;4.05;1.60;;;11.40;99.90;;;;;;4968910;28;20236;-68
2023/03/26 03:38:15;;;;;;;6.60;1.50;;;11.40;99.90;;;;;;4978098;28;20176;-68
2023/03/26 03:40:41;;;;;;;6.82;2.17;;;11.40;99.90;;;;;;4975788;28;20235;-68
2023/03/26 03:43:09;;;;;;;4.13;1.27;;;11.40;99.90;;;;;;4978499;28;20199;-69
2023/03/26 03:45:35;;;;;;;5.28;1.50;;;11.40;99.90;;;;;;4978080;28;20180;-69
2023/03/26 03:48:01;;;;;;;6.35;1.65;;;11.40;99.90;;;;;;4978513;28;20211;-69
2023/03/26 03:50:27;;;;;;;3.47;1.38;;;11.40;99.90;;;;;;4994548;28;20203;-69
2023/03/26 03:52:55;;;;;;;6.80;1.60;;;11.40;99.90;;;;;;4977006;28;20196;-70
2023/03/26 03:55:22;;;;;;;5.03;1.50;;;11.50;99.90;;;;;;4994056;28;20200;-69
2023/03/26 03:57:51;;;;;;;5.55;1.40;;;11.40;99.90;;;;;;4974872;28;20177;-69
2023/03/26 04:00:19;;;;;;;4.85;1.40;;;11.40;99.90;;;;;;4985799;28;20223;-78
2023/03/26 04:02:53;;;;;;;3.40;1.40;;;11.30;99.90;;;;;;4994487;28;20208;-79
2023/03/26 04:05:21;;;;;;;4.82;1.52;;;11.30;99.90;;;;;;4994378;28;20176;-79
2023/03/26 04:07:51;;;;;;;5.82;1.58;;;11.30;99.90;;;;;;4994419;28;20176;-79
2023/03/26 04:10:21;;;;;;;4.30;1.52;;;11.30;99.90;;;;;;4994336;28;20176;-79
2023/03/26 04:12:52;;;;;;;5.25;1.90;;;11.30;99.90;;;;;;4993976;28;20169;-78
2023/03/26 04:15:17;;;;;;;4.25;1.40;;;11.30;99.90;;;;;;4993957;28;20216;-79
2023/03/26 04:17:43;;;;;;;3.97;1.42;;;11.20;99.90;;;;;;4994088;28;20190;-77
2023/03/26 04:20:15;;;;;;;5.43;1.50;;;11.20;99.90;;;;;;4982794;28;20172;-79
2023/03/26 04:22:45;;;;;;;5.07;1.27;;;11.20;99.90;;;;;;4981955;28;20197;-78
2023/03/26 04:25:14;;;;;;;4.00;1.50;;;11.10;99.90;;;;;;4971446;28;20184;-80
2023/03/26 04:27:42;;;;;;;6.00;1.40;;;11.10;99.90;;;;;;4966889;28;20184;-72
2023/03/26 04:30:13;;;;;;;3.80;1.42;;;11.10;99.90;;;;;;4972870;28;20173;-76
2023/03/26 04:32:41;;;;;;;4.13;1.20;;;11.10;99.90;;;;;;4980503;28;20188;-78
2023/03/26 04:35:12;;;;;;;4.45;1.58;;;11.10;99.90;;;;;;4976581;28;20285;-78
2023/03/26 04:37:40;;;;;;;5.00;1.73;;;11.10;99.90;;;;;;4976364;28;20207;-77
2023/03/26 04:40:12;;;;;;;6.28;1.67;;;11.10;99.90;;;;;;4977255;28;20182;-76
2023/03/26 04:42:44;;;;;;;5.40;1.65;;;11.00;99.90;;;;;;4976261;28;20211;-79
2023/03/26 04:45:12;;;;;;;3.75;1.42;;;11.00;99.90;;;;;;4976275;28;20207;-76
2023/03/26 04:47:37;;;;;;;4.05;1.90;;;11.10;99.90;;;;;;4991552;28;20227;-74
2023/03/26 04:50:08;;;;;;;4.22;1.77;;;11.00;99.90;;;;;;4988649;28;20188;-78
2023/03/26 04:52:36;;;;;;;4.25;1.38;;;11.00;99.90;;;;;;4976905;28;20278;-79
2023/03/26 04:55:03;;;;;;;4.80;1.75;;;11.00;99.90;;;;;;4975985;28;20208;-75
2023/03/26 04:57:44;;;;;;;3.95;1.42;;;11.00;99.90;;;;;;4970410;28;20176;-75
2023/03/26 05:00:19;;;;;;;4.60;1.52;;;10.90;99.90;;;;;;4981367;28;20176;-77
2023/03/26 05:02:48;;;;;;;4.32;1.55;;;10.90;99.90;;;;;;4975466;28;20238;-77
2023/03/26 05:05:16;;;;;;;6.38;1.80;;;10.90;99.90;;;;;;4995896;28;20187;-79
2023/03/26 05:07:45;;;;;;;4.28;1.40;;;10.90;99.90;;;;;;5011720;28;20230;-77
2023/03/26 05:10:19;;;;;;;5.15;2.13;;;10.80;99.90;;;;;;4991760;28;20196;-79
2023/03/26 05:12:47;;;;;;;4.22;1.80;;;10.80;99.90;;;;;;4992229;28;20203;-80
2023/03/26 05:15:15;;;;;;;5.13;2.00;;;10.80;99.90;;;;;;4975114;28;20238;-78
2023/03/26 05:17:41;;;;;;;3.88;1.80;;;10.80;99.90;;;;;;4970907;28;20169;-78
2023/03/26 05:20:20;;;;;;;4.53;1.67;;;10.70;99.90;;;;;;4984330;28;20513;-77
2023/03/26 05:22:48;;;;;;;3.45;1.60;;;10.70;99.90;;;;;;4988697;28;20230;-79
2023/03/26 05:25:14;;;;;;;2.78;1.42;;;10.70;99.90;;;;;;4984321;28;20183;-77
2023/03/26 05:27:42;;;;;;;4.20;1.65;;;10.70;99.90;;;;;;4975340;28;20238;-77
2023/03/26 05:30:11;;;;;;;4.10;1.60;;;10.70;99.90;;;;;;4975838;28;20951;-78
2023/03/26 05:32:39;;;;;;;4.38;1.75;;;10.60;99.90;;;;;;4975549;28;20178;-78
2023/03/26 05:35:06;;;;;;;3.25;1.50;;;10.60;99.90;;;;;;4975443;28;20207;-79
2023/03/26 05:37:36;;;;;;;4.28;1.70;;;10.60;99.90;;;;;;4991502;28;20180;-78
2023/03/26 05:40:10;;;;;;;4.70;1.35;;;10.60;99.90;;;;;;4990865;28;20258;-80
2023/03/26 05:42:36;;;;;;;4.97;1.55;;;10.50;99.90;;;;;;4976204;28;20206;-79
2023/03/26 05:45:04;;;;;;;3.85;1.33;;;10.50;99.90;;;;;;4993773;28;20184;-79
2023/03/26 05:47:30;;;;;;;4.63;1.40;;;10.50;99.90;;;;;;4996250;28;20178;-78
2023/03/26 05:49:56;;;;;;;2.53;1.20;;;10.50;99.90;;;;;;5001484;28;20176;-80
2023/03/26 05:52:22;;;;;;;3.72;1.35;;;10.50;99.90;;;;;;4991528;28;20219;-78
2023/03/26 05:54:47;;;;;;;6.20;1.52;;;10.50;99.90;;;;;;4978236;28;20273;-78
2023/03/26 05:57:13;;;;;;;4.82;1.38;;;10.40;99.90;;;;;;4968320;28;20315;-77
2023/03/26 05:59:39;;;;;;;6.38;1.65;;;10.50;99.90;;;;;;4974325;28;20207;-78
2023/03/26 06:02:05;;;;;;;5.25;1.67;;;10.40;99.90;;;;;;4974318;28;20243;-76
2023/03/26 06:04:33;;;;;;;6.88;2.40;;;10.50;99.90;;;;;;4974314;28;20184;-79
2023/03/26 06:06:58;;;;;;;5.18;1.50;;;10.50;99.90;;;;;;4975204;28;20275;-80
2023/03/26 06:09:26;;;;;;;4.63;1.60;;;10.40;99.90;;;;;;4975716;28;20274;-80
2023/03/26 06:11:52;;;;;;;3.37;1.60;;;10.40;99.90;;;;;;4975489;28;20369;-80
2023/03/26 06:14:19;;;;;;;3.45;1.38;;;10.40;99.90;;;;;;4975560;28;20294;-78
2023/03/26 06:16:45;;;;;;;3.55;1.27;;;10.40;99.90;;;;;;4975033;28;20176;-80
2023/03/26 06:19:13;;;;;;;5.28;1.50;;;10.40;99.90;;;;;;4974971;28;20214;-79
2023/03/26 06:21:41;;;;;;;5.63;1.80;;;10.30;99.90;;;;;;4975258;28;20181;-77
2023/03/26 06:24:07;;;;;;;6.68;1.73;;;10.30;99.90;;;;;;4976922;28;20195;-80
2023/03/26 06:26:37;;;;;;;4.80;1.60;;;10.20;99.90;;;;;;4963688;28;20180;-77
2023/03/26 06:29:05;;;;;;;4.47;1.50;;;10.20;99.90;;;;;;4991758;28;20176;-76
2023/03/26 06:31:31;;;;;;;4.43;1.30;;;10.20;99.90;;;;;;4991664;28;20216;-79
2023/03/26 06:33:56;;;;;;;3.97;1.90;;;10.20;99.90;;;;;;4975555;28;20203;-77
2023/03/26 06:36:24;;;;;;;4.10;1.73;;;10.20;99.90;;;;;;4962879;28;20247;-79
2023/03/26 06:38:52;;;;;;;5.22;1.50;;;10.10;99.90;;;;;;4989499;28;20274;-76
2023/03/26 06:41:20;;;;;;;3.23;1.47;;;10.10;99.90;;;;;;4963578;28;20192;-76
2023/03/26 06:43:45;;;;;;;4.43;1.50;;;10.10;99.90;;;;;;4975440;28;20172;-74
2023/03/26 06:46:20;;;;;;;3.43;1.50;;;10.10;99.90;;;;;;4971646;28;20175;-74
2023/03/26 06:48:45;;;;;;;4.50;1.47;;;10.10;99.90;;;;;;4974324;28;20187;-78
2023/03/26 06:51:14;;;;;;;4.20;1.30;;;10.10;99.90;;;;;;4974604;28;20196;-77
2023/03/26 06:53:40;;;;;;;4.07;1.40;;;10.10;99.90;;;;;;4970005;28;20191;-75
2023/03/26 06:56:08;;;;;;;3.43;1.33;;;10.10;99.90;;;;;;4991653;28;20184;-77
2023/03/26 06:58:36;;;;;;;3.77;1.50;;;10.10;99.90;;;;;;4979117;28;20190;-77
2023/03/26 07:01:02;;;;;;;3.60;1.30;;;10.10;99.90;;;;;;4983963;28;20187;-77
2023/03/26 07:03:28;;;;;;;5.20;1.70;;;10.10;99.90;;;;;;4978578;28;20192;-77
2023/03/26 07:05:58;;;;;;;3.70;1.50;;;10.10;99.90;;;;;;4991811;28;20476;-76
2023/03/26 07:08:29;;;;;;;4.10;1.63;;;10.10;99.90;;;;;;4973905;28;20185;-77
2023/03/26 07:10:57;;;;;;;4.68;1.48;;;10.10;99.90;;;;;;4971738;28;20266;-76
2023/03/26 07:13:25;;;;;;;4.43;1.58;;;10.10;99.90;;;;;;4977164;28;20251;-77
2023/03/26 07:15:53;;;;;;;5.13;1.30;;;10.10;99.90;;;;;;4984728;28;20207;-76
2023/03/26 07:18:21;;;;;;;3.85;1.67;;;10.10;99.90;;;;;;4980095;28;20176;-78
2023/03/26 07:20:49;;;;;;;4.57;1.60;;;10.10;99.90;;;;;;4978723;28;20229;-75
2023/03/26 07:23:18;;;;;;;3.83;1.50;;;10.10;99.90;;;;;;4979733;28;20196;-77
2023/03/26 07:25:46;;;;;;;6.18;1.55;;;10.10;99.90;;;;;;4995308;28;20193;-76
2023/03/26 07:28:39;;;;;;;5.30;1.97;;;10.10;99.90;;;;;;4994978;28;20191;-75
2023/03/26 07:31:43;;;;;;;3.75;1.60;;;10.20;99.90;;;;;;4984929;28;20191;-76
2023/03/26 07:34:27;;;;;;;2.97;1.27;;;10.20;99.90;;;;;;4946806;28;20218;-78
2023/03/26 07:37:03;;;;;;;7.13;1.90;;;10.10;99.90;;;;;;4975551;28;20196;-79
2023/03/26 07:39:31;;;;;;;2.97;1.37;;;10.20;99.90;;;;;;4982936;28;20171;-78
2023/03/26 07:42:15;;;;;;;6.27;1.70;;;10.10;99.90;;;;;;4994702;28;20323;-79
2023/03/26 07:44:44;;;;;;;6.45;1.90;;;10.10;99.90;;;;;;5000017;28;20229;-80
2023/03/26 07:47:32;;;;;;;5.53;1.60;;;10.10;99.90;;;;;;5014449;28;20175;-78
2023/03/26 07:49:58;;;;;;;4.30;1.77;;;10.10;99.90;;;;;;5003499;28;20227;-78
2023/03/26 07:52:25;;;;;;;7.00;1.80;;;10.10;99.90;;;;;;4993932;28;20206;-75
2023/03/26 07:54:56;;;;;;;4.50;1.50;;;10.10;99.90;;;;;;4977885;28;20243;-79
2023/03/26 07:57:34;;;;;;;6.13;1.60;;;10.00;99.90;;;;;;4974916;28;20225;-78
2023/03/26 08:00:36;;;;;;;4.10;1.60;;;10.00;99.90;;;;;;4983003;28;20195;-79
2023/03/26 08:03:50;;;;;;;4.78;1.42;;;10.00;99.90;;;;;;4959769;28;20200;-79
2023/03/26 08:06:31;;;;;;;6.47;1.42;;;10.00;99.90;;;;;;4948321;28;20250;-78
2023/03/26 08:09:10;;;;;;;4.73;1.60;;;10.00;99.90;;;;;;4993581;28;20227;-79
2023/03/26 08:11:39;;;;;;;4.53;1.45;;;10.10;99.90;;;;;;4984813;28;20187;-79
2023/03/26 08:14:20;;;;;;;3.13;1.37;;;10.10;99.90;;;;;;4977966;28;20210;-73
2023/03/26 08:16:58;;;;;;;5.03;1.60;;;10.10;99.90;;;;;;4989585;28;20266;-77
2023/03/26 08:19:32;;;;;;;8.10;2.00;;;10.10;99.90;;;;;;4993991;28;20275;-77
2023/03/26 08:22:25;;;;;;;5.57;1.90;;;10.10;99.90;;;;;;4977087;28;20208;-77
2023/03/26 08:25:43;;;;;;;3.85;1.48;;;10.10;99.90;;;;;;4993249;28;20282;-75
2023/03/26 08:28:54;;;;;;;4.23;1.50;;;10.00;99.90;;;;;;4959470;28;20196;-77
2023/03/26 08:31:31;;;;;;;6.80;1.50;;;10.00;99.90;;;;;;4963743;28;20206;-76
2023/03/26 08:33:57;;;;;;;3.37;1.37;;;10.10;99.90;;;;;;4993267;28;20215;-78
2023/03/26 08:36:23;;;;;;;4.03;1.50;;;10.00;99.90;;;;;;4976788;28;20275;-76
2023/03/26 08:38:49;;;;;;;2.50;1.27;;;10.00;99.90;;;;;;4976512;28;20204;-77
2023/03/26 08:41:58;;;;;;;2.83;1.30;;;10.00;99.90;;;;;;4994120;28;20200;-77
2023/03/26 08:45:08;;;;;;;4.80;1.33;;;10.10;99.90;;;;;;4930787;28;20222;-77
2023/03/26 08:47:55;;;;;;;3.23;1.30;;;10.10;99.90;;;;;;4969589;28;20203;-78
2023/03/26 08:50:39;;;;;;;4.70;1.50;;;10.10;99.90;;;;;;4993023;28;20183;-75
2023/03/26 08:53:36;;;;;;;2.47;1.20;;;10.00;99.90;;;;;;5002623;28;20202;-77
2023/03/26 08:56:44;;;;;;;3.90;1.47;;;10.00;99.90;;;;;;4993205;28;20196;-76
2023/03/26 08:59:15;;;;;;;3.43;1.20;;;10.00;99.90;;;;;;4958937;28;20260;-75
2023/03/26 09:02:05;;;;;;;3.47;1.70;;;10.00;99.90;;;;;;4993165;28;20172;-75
2023/03/26 09:05:02;;;;;;;5.27;1.53;;;10.00;99.90;;;;;;4996062;28;20294;-78
2023/03/26 09:07:59;;;;;;;3.47;1.47;;;10.00;99.90;;;;;;4993868;28;20205;-76
2023/03/26 09:10:30;;;;;;;5.30;1.60;;;9.90;99.90;;;;;;4990710;28;20271;-76
2023/03/26 09:13:24;;;;;;;4.60;1.67;;;9.90;99.90;;;;;;4980919;28;20355;-76
2023/03/26 09:16:38;;;;;;;3.47;1.50;;;9.90;99.90;;;;;;4980754;28;20211;-76
2023/03/26 09:19:32;;;;;;;3.17;1.20;;;9.80;99.90;;;;;;4916506;28;20244;-74
2023/03/26 09:22:29;;;;;;;4.37;1.40;;;9.80;99.90;;;;;;4994561;28;20343;-77
2023/03/26 09:25:24;;;;;;;5.27;1.13;;;9.80;99.90;;;;;;4979879;28;20172;-74
2023/03/26 09:28:08;;;;;;;3.33;1.60;;;9.70;99.90;;;;;;4975778;28;20184;-79
2023/03/26 09:31:03;;;;;;;2.63;1.20;;;9.70;99.90;;;;;;4992865;28;20377;-77
2023/03/26 09:33:52;;;;;;;4.40;1.30;;;9.70;99.90;;;;;;4973266;28;20200;-78
2023/03/26 09:36:22;;;;;;;3.27;1.50;;;9.70;99.90;;;;;;4973122;28;20267;-75
2023/03/26 09:38:47;;;;;;;4.30;1.50;;;9.70;99.90;;;;;;4972934;28;20204;-78
2023/03/26 09:41:14;;;;;;;3.93;1.40;;;9.70;99.90;;;;;;4989163;28;20180;-76
2023/03/26 09:43:54;;;;;;;3.43;1.40;;;9.70;99.90;;;;;;4976589;28;20181;-78
2023/03/26 09:46:48;;;;;;;2.90;1.20;;;9.80;99.90;;;;;;4976350;28;20211;-82
2023/03/26 09:49:31;;;;;;;3.63;1.37;;;9.90;99.90;;;;;;4976118;28;20176;-75
2023/03/26 09:52:06;;;;;;;3.20;1.27;;;10.00;99.90;;;;;;4991519;28;20212;-77
2023/03/26 09:54:50;;;;;;;2.72;1.33;;;10.10;99.90;;;;;;4966946;28;20198;-78
2023/03/26 09:57:19;;;;;;;2.28;1.20;;;10.20;99.90;;;;;;4977888;28;20258;-77
2023/03/26 10:00:14;;;;;;;3.83;1.35;;;10.40;99.90;;;;;;4986296;28;20201;-79
2023/03/26 10:03:17;;;;;;;2.80;1.00;;;10.50;99.90;;;;;;4943611;28;20280;-78
2023/03/26 10:06:18;;;;;;;4.30;1.60;;;10.60;99.90;;;;;;4989159;28;20208;-77
2023/03/26 10:09:09;;;;;;;2.50;1.17;;;10.80;99.90;;;;;;4992064;28;20238;-78
2023/03/26 10:11:43;;;;;;;2.65;1.17;;;10.90;99.90;;;;;;4975217;28;20228;-79
2023/03/26 10:14:20;;;;;;;3.00;1.10;;;11.10;99.90;;;;;;4978995;28;20194;-79
2023/03/26 10:16:56;;;;;;;2.15;1.10;;;11.20;99.90;;;;;;4996890;28;20236;-79
2023/03/26 10:19:48;;;;;;;3.03;1.02;;;11.30;99.90;;;;;;5006633;28;20231;-79
2023/03/26 10:22:47;;;;;;;2.47;1.33;;;11.40;99.90;;;;;;4988500;28;20275;-80
2023/03/26 10:25:27;;;;;;;4.93;1.00;;;11.50;99.90;;;;;;4979672;28;20204;-78
2023/03/26 10:28:17;;;;;;;1.55;0.90;;;11.50;99.90;;;;;;4990962;28;20319;-76
2023/03/26 10:31:12;;;;;;;2.45;1.05;;;11.50;99.90;;;;;;5006417;28;20179;-79
2023/03/26 10:33:56;;;;;;;4.10;2.10;;;11.50;99.90;;;;;;5002271;28;20239;-76
2023/03/26 10:36:39;;;;;;;5.65;2.65;;;11.50;99.90;;;;;;4994999;28;20199;-76
2023/03/26 10:39:30;;;;;;;2.17;1.38;;;11.40;99.90;;;;;;4978468;28;20184;-77
2023/03/26 10:42:23;;;;;;;2.15;1.17;;;11.40;99.90;;;;;;4982156;28;20181;-76
2023/03/26 10:45:11;;;;;;;2.65;1.20;;;11.30;99.90;;;;;;4992921;28;20200;-78
2023/03/26 10:48:03;;;;;;;2.58;1.00;;;11.30;99.90;;;;;;4993853;28;20271;-78
2023/03/26 10:51:05;;;;;;;2.22;1.10;;;11.30;99.90;;;;;;4994386;28;20180;-75
2023/03/26 10:53:54;;;;;;;4.53;1.33;;;11.20;99.90;;;;;;4993830;28;20222;-77
2023/03/26 10:56:48;;;;;;;2.42;1.10;;;11.20;99.90;;;;;;4976119;28;20184;-70
2023/03/26 10:59:15;;;;;;;3.53;0.95;;;11.20;99.90;;;;;;4973938;28;20234;-76
2023/03/26 11:01:58;;;;;;;2.40;0.93;;;11.20;99.90;;;;;;4989589;28;20196;-75
2023/03/26 11:04:29;;;;;;;2.30;1.40;;;11.20;99.90;;;;;;4978519;28;20231;-74
2023/03/26 11:07:25;;;;;;;3.33;1.10;;;11.10;99.90;;;;;;4994956;28;20187;-76
2023/03/26 11:10:00;;;;;;;1.80;1.20;;;11.10;99.90;;;;;;4976295;28;20188;-73
2023/03/26 11:12:41;;;;;;;4.00;1.20;;;11.20;99.90;;;;;;4982844;28;20171;-75
2023/03/26 11:15:22;;;;;;;2.78;1.10;;;11.30;99.90;;;;;;4981562;28;20196;-72
2023/03/26 11:18:02;;;;;;;2.25;1.00;;;11.40;99.90;;;;;;4994605;28;20192;-75
2023/03/26 11:20:44;;;;;;;3.17;1.75;;;11.40;99.90;;;;;;4979169;28;20190;-75
2023/03/26 11:23:25;;;;;;;2.78;1.40;;;11.50;99.90;;;;;;4977973;28;20200;-73
2023/03/26 11:26:23;;;;;;;2.40;1.10;;;11.60;99.90;;;;;;4977811;28;20183;-78
2023/03/26 11:29:07;;;;;;;3.00;1.20;;;11.70;99.90;;;;;;4962792;28;20192;-75
2023/03/26 11:31:53;;;;;;;2.92;1.00;;;11.70;99.90;;;;;;4974470;28;20208;-76
2023/03/26 11:34:26;;;;;;;2.13;0.80;;;11.70;99.90;;;;;;4991065;28;20212;-76
2023/03/26 11:36:55;;;;;;;1.60;0.90;;;11.70;99.90;;;;;;4976965;28;20203;-75
2023/03/26 11:39:28;;;;;;;1.75;0.95;;;11.70;99.90;;;;;;4976612;28;20179;-77
2023/03/26 11:42:12;;;;;;;1.63;0.90;;;11.60;99.90;;;;;;4977300;28;20207;-75
2023/03/26 11:45:15;;;;;;;1.98;1.00;;;11.50;99.90;;;;;;4977445;28;20168;-73
2023/03/26 11:47:51;;;;;;;1.35;0.82;;;11.50;99.90;;;;;;4971009;28;20303;-76
2023/03/26 11:50:27;;;;;;;1.73;0.93;;;11.40;99.90;;;;;;4993553;28;20171;-74
2023/03/26 11:52:57;;;;;;;1.73;0.73;;;11.40;99.90;;;;;;4977358;28;20199;-73
2023/03/26 11:55:24;;;;;;;0.50;0.50;;;11.30;99.90;;;;;;4977259;28;20200;-72
2023/03/26 11:57:54;;;;;;;0.40;0.40;;;11.30;99.90;;;;;;4977468;28;20178;-72
2023/03/26 12:00:26;;;;;;;0.40;0.30;;;11.20;99.90;;;;;;4992987;28;20204;-77
2023/03/26 12:02:56;;;;;;;0.30;0.20;;;11.10;99.90;;;;;;4976963;28;20267;-77
2023/03/26 12:05:32;;;;;;;0.50;0.32;;;11.00;99.90;;;;;;4993238;28;20183;-71
2023/03/26 12:08:00;;;;;;;0.70;0.30;;;10.90;99.90;;;;;;4994106;28;20207;-67
2023/03/26 12:10:30;;;;;;;0.20;0.20;;;10.90;99.90;;;;;;4977035;28;20180;-66
2023/03/26 12:13:02;;;;;;;0.85;0.25;;;10.80;99.90;;;;;;4993266;28;20266;-66
2023/03/26 12:15:31;;;;;;;0.30;0.30;;;10.80;99.90;;;;;;4977686;28;20204;-66
2023/03/26 12:18:18;;;;;;;0.30;0.30;;;10.70;99.90;;;;;;4976861;28;20287;-65
2023/03/26 12:20:49;;;;;;;0.35;0.28;;;10.70;99.90;;;;;;4976458;28;20186;-66
2023/03/26 12:23:36;;;;;;;0.22;0.22;;;10.70;99.90;;;;;;4988551;28;20188;-66
2023/03/26 12:26:14;;;;;;;0.30;0.30;;;10.70;99.90;;;;;;4984108;28;20183;-66
2023/03/26 12:28:46;;;;;;;0.40;0.32;;;10.70;99.90;;;;;;4994506;28;20246;-66
2023/03/26 12:31:19;;;;;;;1.45;0.90;;;10.80;99.90;;;;;;5012386;28;20160;-65
2023/03/26 12:34:03;;;;;;;1.05;0.60;;;10.80;99.90;;;;;;4990546;28;20176;-65
2023/03/26 12:36:34;;;;;;;0.88;0.43;;;10.80;99.90;;;;;;4992526;28;20270;-65
2023/03/26 12:39:00;;;;;;;2.42;1.33;;;10.90;99.90;;;;;;4976930;28;20211;-65
2023/03/26 12:41:39;;;;;;;2.35;1.10;;;10.90;99.90;;;;;;4992336;28;20203;-65
2023/03/26 12:44:24;;;;;;;2.35;1.60;;;11.00;99.90;;;;;;4976442;28;20206;-65
2023/03/26 12:47:12;;;;;;;1.40;0.98;;;11.10;99.90;;;;;;4975782;28;20194;-65
2023/03/26 12:49:40;;;;;;;0.70;0.50;;;11.00;99.90;;;;;;4991597;28;20206;-66
2023/03/26 12:52:24;;;;;;;0.30;0.28;;;11.10;99.90;;;;;;4992741;28;20207;-65
2023/03/26 12:55:07;;;;;;;0.30;0.30;;;11.10;99.90;;;;;;4992810;28;20242;-66
2023/03/26 12:57:39;;;;;;;0.30;0.30;;;11.10;99.90;;;;;;4976895;28;20164;-65
2023/03/26 13:00:23;;;;;;;0.20;0.15;;;11.20;99.90;;;;;;4976734;28;20199;-66
2023/03/26 13:03:13;;;;;;;0.20;0.20;;;11.20;99.90;;;;;;4992622;28;20250;-66
2023/03/26 13:06:05;;;;;;;0.25;0.25;;;11.20;99.90;;;;;;4976166;28;20274;-66
2023/03/26 13:08:48;;;;;;;0.30;0.30;;;11.30;99.90;;;;;;4957370;28;20168;-67
2023/03/26 13:11:58;;;;;;;0.47;0.32;;;11.30;99.90;;;;;;5093174;27;20592;-66
2023/03/26 13:14:32;;;;;;;0.25;0.20;;;11.40;99.90;;;;;;5091971;28;20265;-65
2023/03/26 13:17:39;;;;;;;0.30;0.30;;;11.40;99.90;;;;;;5091971;28;20199;-66
2023/03/26 13:20:10;;;;;;;0.90;0.30;;;11.50;99.90;;;;;;5091839;28;20183;-65
2023/03/26 13:23:07;;;;;;;0.40;0.40;;;11.50;99.90;;;;;;5092407;28;20243;-66
2023/03/26 13:25:46;;;;;;;0.60;0.40;;;11.60;99.90;;;;;;5079582;28;20203;-66
2023/03/26 13:28:42;;;;;;;0.80;0.40;;;11.60;99.90;;;;;;5085977;28;20191;-65
2023/03/26 13:31:16;;;;;;;0.47;0.38;;;11.60;99.90;;;;;;5111581;28;20268;-66